createdAt,value
2022-11-16T00:03:11.579Z,30.57
2022-11-16T00:08:14.868Z,29.07
2022-11-16T00:13:18.069Z,29.30
2022-11-16T00:18:21.250Z,29.93
2022-11-16T00:23:24.505Z,28.20
2022-11-16T00:28:28.527Z,27.23
2022-11-16T00:33:32.209Z,28.93
2022-11-16T00:38:35.697Z,27.20
2022-11-16T00:43:39.233Z,28.83
2022-11-16T00:48:42.949Z,30.13
2022-11-16T00:53:46.003Z,27.77
2022-11-16T00:58:49.427Z,26.40
2022-11-16T01:03:53.259Z,26.27
2022-11-16T01:08:56.253Z,26.30
2022-11-16T01:14:02.685Z,20.73
2022-11-16T01:19:05.813Z,4.50
2022-11-16T01:24:08.735Z,1.93
2022-11-16T01:29:11.849Z,1.30
2022-11-16T01:34:19.377Z,1.10
2022-11-16T01:39:24.031Z,1.40
2022-11-16T01:44:33.823Z,1.20
2022-11-16T01:49:55.092Z,1.40
2022-11-16T01:55:04.472Z,1.27
2022-11-16T02:00:19.909Z,1.53
2022-11-16T02:05:50.830Z,1.20
2022-11-16T02:11:02.728Z,1.23
2022-11-16T02:16:13.347Z,1.10
2022-11-16T02:21:33.810Z,1.27
2022-11-16T02:27:02.789Z,1.10
2022-11-16T02:32:10.433Z,0.87
2022-11-16T02:37:18.020Z,1.00
2022-11-16T02:42:35.364Z,1.00
2022-11-16T02:47:42.034Z,1.10
2022-11-16T02:52:45.472Z,0.90
2022-11-16T02:57:54.144Z,1.30
2022-11-16T03:03:10.408Z,1.70
2022-11-16T03:08:27.505Z,1.37
2022-11-16T03:13:34.158Z,1.20
2022-11-16T03:18:38.839Z,1.10
2022-11-16T03:23:42.714Z,0.93
2022-11-16T03:28:57.038Z,0.83
2022-11-16T03:34:04.865Z,1.00
2022-11-16T03:39:13.509Z,1.00
2022-11-16T03:44:17.778Z,0.90
2022-11-16T03:49:23.124Z,1.00
2022-11-16T03:54:28.339Z,1.30
2022-11-16T03:59:31.412Z,1.10
2022-11-16T04:04:54.789Z,1.20
2022-11-16T04:10:17.916Z,1.40
2022-11-16T04:15:39.833Z,1.27
2022-11-16T04:21:02.387Z,1.37
2022-11-16T04:26:08.129Z,1.40
2022-11-16T04:31:30.669Z,1.20
2022-11-16T04:36:58.133Z,1.70
2022-11-16T04:42:19.978Z,1.40
2022-11-16T04:47:26.183Z,2.07
2022-11-16T04:52:28.971Z,2.30
2022-11-16T04:57:32.501Z,1.80
2022-11-16T05:02:36.026Z,1.80
2022-11-16T05:07:41.636Z,2.00
2022-11-16T05:12:51.186Z,2.10
2022-11-16T05:17:55.883Z,2.53
2022-11-16T05:23:01.320Z,2.20
2022-11-16T05:28:09.621Z,2.70
2022-11-16T05:33:18.787Z,2.43
2022-11-16T05:38:22.145Z,2.20
2022-11-16T05:43:29.829Z,2.17
2022-11-16T05:48:42.137Z,2.10
2022-11-16T05:53:45.047Z,2.23
2022-11-16T05:58:52.420Z,2.80
2022-11-16T06:03:56.176Z,1.87
2022-11-16T06:09:00.054Z,1.80
2022-11-16T06:14:03.874Z,1.60
2022-11-16T06:19:07.746Z,1.20
2022-11-16T06:24:10.783Z,1.70
2022-11-16T06:29:15.134Z,1.77
2022-11-16T06:34:18.588Z,2.13
2022-11-16T06:39:21.847Z,3.43
2022-11-16T06:44:25.497Z,2.10
2022-11-16T06:49:34.031Z,1.87
2022-11-16T06:54:41.998Z,35.63
2022-11-16T06:59:45.207Z,7.27
2022-11-16T07:04:49.135Z,5.23
2022-11-16T07:09:52.452Z,7.63
2022-11-16T07:14:56.309Z,4.87
2022-11-16T07:20:00.671Z,3.80
2022-11-16T07:25:05.658Z,4.03
2022-11-16T07:30:09.251Z,2.20
2022-11-16T07:35:33.130Z,1.87
2022-11-16T07:40:37.696Z,2.80
2022-11-16T07:45:41.163Z,2.70
2022-11-16T07:50:46.695Z,2.97
2022-11-16T07:55:54.868Z,2.50
2022-11-16T08:01:12.976Z,2.20
2022-11-16T08:06:18.562Z,3.20
2022-11-16T08:11:22.102Z,2.80
2022-11-16T08:16:29.657Z,4.77
2022-11-16T08:21:42.082Z,3.17
2022-11-16T08:26:45.145Z,7.33
2022-11-16T08:31:50.717Z,5.90
2022-11-16T08:36:56.269Z,7.27
2022-11-16T08:42:11.565Z,7.13
2022-11-16T08:47:16.073Z,11.17
2022-11-16T08:52:24.450Z,5.43
2022-11-16T08:57:30.214Z,4.20
2022-11-16T09:02:35.998Z,17.97
2022-11-16T09:07:40.643Z,44.53
2022-11-16T09:12:43.800Z,15.03
2022-11-16T09:17:46.686Z,3.63
2022-11-16T09:22:49.578Z,2.77
2022-11-16T09:27:55.524Z,6.53
2022-11-16T09:32:59.395Z,4.10
2022-11-16T09:38:02.536Z,7.80
2022-11-16T09:43:33.769Z,4.50
2022-11-16T09:48:37.930Z,6.13
2022-11-16T09:53:56.171Z,6.30
2022-11-16T09:59:11.078Z,5.40
2022-11-16T10:04:37.272Z,5.60
2022-11-16T10:09:40.225Z,23.07
2022-11-16T10:15:14.139Z,18.13
2022-11-16T10:20:35.955Z,24.13
2022-11-16T10:25:46.950Z,9.00
2022-11-16T10:31:30.334Z,15.00
2022-11-16T10:36:36.438Z,10.50
2022-11-16T10:41:50.639Z,11.07
2022-11-16T10:47:02.497Z,17.97
2022-11-16T10:52:05.945Z,67.47
2022-11-16T10:57:14.204Z,34.17
2022-11-16T11:02:27.965Z,12.37
2022-11-16T11:07:33.454Z,15.63
2022-11-16T11:12:39.171Z,20.10
2022-11-16T11:17:44.387Z,20.57
2022-11-16T11:22:50.550Z,22.17
2022-11-16T11:28:08.243Z,22.87
2022-11-16T11:33:15.822Z,18.23
2022-11-16T11:38:19.459Z,23.43
2022-11-16T11:43:24.897Z,30.70
2022-11-16T11:48:38.556Z,25.10
2022-11-16T11:53:48.297Z,15.83
2022-11-16T11:58:54.576Z,25.77
2022-11-16T12:04:35.728Z,5.83
2022-11-16T12:10:03.648Z,36.80
2022-11-16T12:15:28.894Z,15.93
2022-11-16T12:20:38.465Z,34.53
2022-11-16T12:26:25.237Z,21.30
2022-11-16T12:31:59.419Z,10.27
2022-11-16T12:37:23.975Z,12.80
2022-11-16T12:42:45.397Z,20.30
2022-11-16T12:48:08.329Z,4.90
2022-11-16T12:53:29.480Z,34.37
2022-11-16T12:59:01.750Z,12.23
2022-11-16T13:04:27.729Z,27.03
2022-11-16T13:09:34.653Z,32.80
2022-11-16T13:14:52.073Z,19.70
2022-11-16T13:20:19.342Z,17.27
2022-11-16T13:25:33.411Z,15.60
2022-11-16T13:30:58.204Z,36.53
2022-11-16T13:36:45.453Z,40.17
2022-11-16T13:41:51.086Z,4.07
2022-11-16T13:47:05.301Z,23.13
2022-11-16T13:52:23.231Z,13.00
2022-11-16T13:57:30.189Z,8.97
2022-11-16T14:02:41.116Z,3.57
2022-11-16T14:07:48.334Z,6.63
2022-11-16T14:12:53.341Z,5.90
2022-11-16T14:18:00.973Z,7.40
2022-11-16T14:23:23.598Z,6.00
2022-11-16T14:28:45.509Z,5.47
2022-11-16T14:33:58.693Z,9.90
2022-11-16T14:39:30.853Z,4.67
2022-11-16T14:44:39.405Z,3.60
2022-11-16T14:49:43.635Z,4.77
2022-11-16T14:54:46.511Z,3.13
2022-11-16T14:59:50.325Z,3.40
2022-11-16T15:04:54.283Z,7.53
2022-11-16T15:10:02.639Z,3.90
2022-11-16T15:15:16.124Z,11.17
2022-11-16T15:20:24.243Z,6.80
2022-11-16T15:25:33.713Z,8.37
2022-11-16T15:30:44.155Z,9.80
2022-11-16T15:35:47.709Z,10.17
2022-11-16T15:40:55.261Z,10.10
2022-11-16T15:45:58.888Z,18.00
2022-11-16T15:51:05.280Z,12.73
2022-11-16T15:56:30.928Z,12.87
2022-11-16T16:01:41.908Z,21.30
2022-11-16T16:06:49.509Z,14.73
2022-11-16T16:11:55.576Z,12.17
2022-11-16T16:16:59.819Z,3.70
2022-11-16T16:22:04.250Z,8.50
2022-11-16T16:27:12.539Z,20.50
2022-11-16T16:32:24.873Z,10.53
2022-11-16T16:37:29.762Z,3.80
2022-11-16T16:42:32.786Z,3.10
2022-11-16T16:47:35.967Z,2.40
2022-11-16T16:52:39.974Z,1.90
2022-11-16T16:57:42.779Z,1.73
2022-11-16T17:02:45.755Z,2.20
2022-11-16T17:07:48.562Z,1.80
2022-11-16T17:12:56.364Z,2.43
2022-11-16T17:18:00.060Z,2.03
2022-11-16T17:23:03.317Z,3.10
2022-11-16T17:28:06.442Z,1.70
2022-11-16T17:33:09.286Z,3.87
2022-11-16T17:38:13.318Z,2.17
2022-11-16T17:43:16.135Z,2.13
2022-11-16T17:48:19.117Z,2.80
2022-11-16T17:53:28.408Z,2.60
2022-11-16T17:58:34.303Z,3.60
2022-11-16T18:03:37.798Z,4.00
2022-11-16T18:08:41.481Z,6.70
2022-11-16T18:13:45.388Z,5.13
2022-11-16T18:18:49.146Z,6.17
2022-11-16T18:23:52.196Z,4.50
2022-11-16T18:28:55.322Z,3.07
2022-11-16T18:33:58.574Z,3.27
2022-11-16T18:39:01.624Z,2.93
2022-11-16T18:44:06.406Z,2.67
2022-11-16T18:49:12.354Z,3.90
2022-11-16T18:54:17.847Z,2.33
2022-11-16T18:59:21.641Z,6.17
2022-11-16T19:04:25.119Z,2.63
2022-11-16T19:09:28.869Z,3.03
2022-11-16T19:14:32.418Z,5.77
2022-11-16T19:19:36.458Z,3.40
2022-11-16T19:24:39.999Z,2.87
2022-11-16T19:29:43.795Z,2.77
2022-11-16T19:34:46.775Z,2.90
2022-11-16T19:39:50.159Z,2.77
2022-11-16T19:44:53.300Z,2.90
2022-11-16T19:49:57.552Z,3.23
2022-11-16T19:55:01.279Z,2.53
2022-11-16T20:00:04.863Z,2.20
2022-11-16T20:05:09.262Z,2.20
2022-11-16T20:10:12.533Z,2.50
2022-11-16T20:15:15.965Z,2.40
2022-11-16T20:20:19.175Z,2.30
2022-11-16T20:25:23.683Z,2.40
2022-11-16T20:30:27.816Z,5.23
2022-11-16T20:35:31.457Z,2.17
2022-11-16T20:40:34.788Z,2.40
2022-11-16T20:45:38.113Z,2.57
2022-11-16T20:50:41.688Z,2.70
2022-11-16T20:55:46.151Z,2.33
2022-11-16T21:00:49.750Z,2.77
2022-11-16T21:05:53.171Z,3.60
2022-11-16T21:10:56.360Z,2.97
2022-11-16T21:16:05.243Z,2.23
2022-11-16T21:21:12.478Z,2.43
2022-11-16T21:26:16.008Z,1.93
2022-11-16T21:31:21.564Z,3.20
2022-11-16T21:36:26.478Z,3.67
2022-11-16T21:41:29.427Z,3.40
2022-11-16T21:46:32.194Z,2.70
2022-11-16T21:51:35.225Z,2.07
2022-11-16T21:56:38.077Z,1.60
2022-11-16T22:01:59.543Z,2.10
2022-11-16T22:07:31.548Z,1.50
2022-11-16T22:12:35.051Z,2.20
2022-11-16T22:17:44.927Z,1.90
2022-11-16T22:22:47.963Z,3.23
2022-11-16T22:28:20.353Z,1.60
2022-11-16T22:33:14.058Z,1.50
2022-11-16T22:38:17.074Z,3.60
2022-11-16T22:43:21.274Z,1.93
2022-11-16T22:48:24.441Z,1.80
2022-11-16T22:53:27.525Z,1.60
2022-11-16T22:58:30.344Z,1.67
2022-11-16T23:03:34.382Z,1.70
2022-11-16T23:08:38.076Z,2.50
2022-11-16T23:13:59.705Z,1.87
2022-11-16T23:19:02.720Z,1.93
2022-11-16T23:24:24.798Z,1.90
2022-11-16T23:29:28.140Z,2.07
2022-11-16T23:34:31.201Z,1.70
2022-11-16T23:39:34.383Z,1.60
2022-11-16T23:44:37.551Z,1.97
2022-11-16T23:49:40.571Z,1.97
2022-11-16T23:54:43.868Z,2.00
2022-11-16T23:59:46.822Z,2.10
